sensor_id;sensor_type;location;lat;lon;timestamp;P1;durP1;ratioP1;P2;durP2;ratioP2
29030;SDS011;16122;50.236;11.734;2023-04-06T00:01:38;1.50;;;1.40;;
29030;SDS011;16122;50.236;11.734;2023-04-06T00:04:05;1.30;;;1.20;;
29030;SDS011;16122;50.236;11.734;2023-04-06T00:06:31;2.70;;;1.40;;
29030;SDS011;16122;50.236;11.734;2023-04-06T00:08:58;1.40;;;1.30;;
29030;SDS011;16122;50.236;11.734;2023-04-06T00:11:25;1.40;;;1.17;;
29030;SDS011;16122;50.236;11.734;2023-04-06T00:13:51;1.20;;;1.10;;
29030;SDS011;16122;50.236;11.734;2023-04-06T00:16:17;1.83;;;1.40;;
29030;SDS011;16122;50.236;11.734;2023-04-06T00:18:43;1.93;;;1.67;;
29030;SDS011;16122;50.236;11.734;2023-04-06T00:21:13;1.30;;;1.20;;
29030;SDS011;16122;50.236;11.734;2023-04-06T00:23:40;1.83;;;1.50;;
29030;SDS011;16122;50.236;11.734;2023-04-06T00:26:06;1.57;;;1.00;;
29030;SDS011;16122;50.236;11.734;2023-04-06T00:28:33;1.70;;;1.43;;
29030;SDS011;16122;50.236;11.734;2023-04-06T00:30:59;1.30;;;1.20;;
29030;SDS011;16122;50.236;11.734;2023-04-06T00:33:25;1.67;;;1.33;;
29030;SDS011;16122;50.236;11.734;2023-04-06T00:35:51;1.60;;;1.40;;
29030;SDS011;16122;50.236;11.734;2023-04-06T00:38:17;1.17;;;1.10;;
29030;SDS011;16122;50.236;11.734;2023-04-06T00:40:43;1.50;;;1.40;;
29030;SDS011;16122;50.236;11.734;2023-04-06T00:43:10;1.40;;;1.30;;
29030;SDS011;16122;50.236;11.734;2023-04-06T00:45:40;1.20;;;1.10;;
29030;SDS011;16122;50.236;11.734;2023-04-06T00:48:06;1.20;;;1.10;;
29030;SDS011;16122;50.236;11.734;2023-04-06T00:50:33;1.40;;;1.30;;
29030;SDS011;16122;50.236;11.734;2023-04-06T00:53:00;2.40;;;1.30;;
29030;SDS011;16122;50.236;11.734;2023-04-06T00:55:27;1.30;;;1.10;;
29030;SDS011;16122;50.236;11.734;2023-04-06T00:57:53;1.20;;;1.10;;
29030;SDS011;16122;50.236;11.734;2023-04-06T01:00:22;1.50;;;1.30;;
29030;SDS011;16122;50.236;11.734;2023-04-06T01:02:53;1.60;;;1.20;;
29030;SDS011;16122;50.236;11.734;2023-04-06T01:05:22;1.20;;;1.10;;
29030;SDS011;16122;50.236;11.734;2023-04-06T01:07:52;1.30;;;1.20;;
29030;SDS011;16122;50.236;11.734;2023-04-06T01:10:25;1.93;;;1.20;;
29030;SDS011;16122;50.236;11.734;2023-04-06T01:12:59;1.33;;;1.00;;
29030;SDS011;16122;50.236;11.734;2023-04-06T01:15:41;1.33;;;1.23;;
29030;SDS011;16122;50.236;11.734;2023-04-06T01:18:11;1.40;;;1.30;;
29030;SDS011;16122;50.236;11.734;2023-04-06T01:20:43;1.13;;;1.10;;
29030;SDS011;16122;50.236;11.734;2023-04-06T01:23:09;1.53;;;1.43;;
29030;SDS011;16122;50.236;11.734;2023-04-06T01:25:38;1.83;;;1.30;;
29030;SDS011;16122;50.236;11.734;2023-04-06T01:28:07;1.50;;;1.40;;
29030;SDS011;16122;50.236;11.734;2023-04-06T01:31:02;0.90;;;0.90;;
29030;SDS011;16122;50.236;11.734;2023-04-06T01:33:41;1.37;;;1.27;;
29030;SDS011;16122;50.236;11.734;2023-04-06T01:36:10;1.70;;;1.57;;
29030;SDS011;16122;50.236;11.734;2023-04-06T01:38:37;1.67;;;1.30;;
29030;SDS011;16122;50.236;11.734;2023-04-06T01:41:03;2.13;;;1.30;;
29030;SDS011;16122;50.236;11.734;2023-04-06T01:43:41;2.03;;;1.07;;
29030;SDS011;16122;50.236;11.734;2023-04-06T01:46:09;1.43;;;1.33;;
29030;SDS011;16122;50.236;11.734;2023-04-06T01:48:39;1.40;;;1.30;;
29030;SDS011;16122;50.236;11.734;2023-04-06T01:51:19;1.60;;;1.50;;
29030;SDS011;16122;50.236;11.734;2023-04-06T01:53:53;1.30;;;1.20;;
29030;SDS011;16122;50.236;11.734;2023-04-06T01:56:22;1.83;;;1.20;;
29030;SDS011;16122;50.236;11.734;2023-04-06T01:59:00;1.47;;;1.37;;
29030;SDS011;16122;50.236;11.734;2023-04-06T02:01:33;1.20;;;1.10;;
29030;SDS011;16122;50.236;11.734;2023-04-06T02:03:59;1.90;;;1.40;;
29030;SDS011;16122;50.236;11.734;2023-04-06T02:06:25;1.23;;;1.13;;
29030;SDS011;16122;50.236;11.734;2023-04-06T02:08:52;1.50;;;1.40;;
29030;SDS011;16122;50.236;11.734;2023-04-06T02:11:18;1.03;;;1.00;;
29030;SDS011;16122;50.236;11.734;2023-04-06T02:13:48;2.10;;;1.27;;
29030;SDS011;16122;50.236;11.734;2023-04-06T02:16:15;1.07;;;0.97;;
29030;SDS011;16122;50.236;11.734;2023-04-06T02:18:42;1.30;;;1.20;;
29030;SDS011;16122;50.236;11.734;2023-04-06T02:21:08;1.20;;;1.10;;
29030;SDS011;16122;50.236;11.734;2023-04-06T02:23:35;1.20;;;0.97;;
29030;SDS011;16122;50.236;11.734;2023-04-06T02:26:00;1.17;;;1.03;;
29030;SDS011;16122;50.236;11.734;2023-04-06T02:28:27;1.20;;;1.10;;
29030;SDS011;16122;50.236;11.734;2023-04-06T02:30:52;1.50;;;1.20;;
29030;SDS011;16122;50.236;11.734;2023-04-06T02:33:22;1.40;;;1.30;;
29030;SDS011;16122;50.236;11.734;2023-04-06T02:35:48;1.20;;;1.10;;
29030;SDS011;16122;50.236;11.734;2023-04-06T02:38:14;1.30;;;1.20;;
29030;SDS011;16122;50.236;11.734;2023-04-06T02:40:39;1.40;;;1.30;;
29030;SDS011;16122;50.236;11.734;2023-04-06T02:43:18;2.60;;;1.10;;
29030;SDS011;16122;50.236;11.734;2023-04-06T02:45:44;1.43;;;1.33;;
29030;SDS011;16122;50.236;11.734;2023-04-06T02:48:11;1.87;;;1.23;;
29030;SDS011;16122;50.236;11.734;2023-04-06T02:50:37;1.43;;;1.30;;
29030;SDS011;16122;50.236;11.734;2023-04-06T02:53:05;2.17;;;1.43;;
29030;SDS011;16122;50.236;11.734;2023-04-06T02:55:32;1.10;;;1.00;;
29030;SDS011;16122;50.236;11.734;2023-04-06T02:57:58;3.07;;;1.33;;
29030;SDS011;16122;50.236;11.734;2023-04-06T03:00:29;1.63;;;1.50;;
29030;SDS011;16122;50.236;11.734;2023-04-06T03:02:55;1.37;;;1.07;;
29030;SDS011;16122;50.236;11.734;2023-04-06T03:05:22;1.30;;;1.20;;
29030;SDS011;16122;50.236;11.734;2023-04-06T03:07:48;1.20;;;1.10;;
29030;SDS011;16122;50.236;11.734;2023-04-06T03:10:25;1.20;;;1.10;;
29030;SDS011;16122;50.236;11.734;2023-04-06T03:12:51;1.30;;;1.20;;
29030;SDS011;16122;50.236;11.734;2023-04-06T03:15:23;1.60;;;1.30;;
29030;SDS011;16122;50.236;11.734;2023-04-06T03:18:00;1.63;;;1.30;;
29030;SDS011;16122;50.236;11.734;2023-04-06T03:20:42;1.20;;;1.10;;
29030;SDS011;16122;50.236;11.734;2023-04-06T03:23:09;1.40;;;1.30;;
29030;SDS011;16122;50.236;11.734;2023-04-06T03:25:39;1.20;;;1.10;;
29030;SDS011;16122;50.236;11.734;2023-04-06T03:28:08;1.33;;;1.23;;
29030;SDS011;16122;50.236;11.734;2023-04-06T03:30:39;1.60;;;1.27;;
29030;SDS011;16122;50.236;11.734;2023-04-06T03:33:05;1.40;;;1.30;;
29030;SDS011;16122;50.236;11.734;2023-04-06T03:35:37;1.73;;;1.37;;
29030;SDS011;16122;50.236;11.734;2023-04-06T03:38:04;1.27;;;1.17;;
29030;SDS011;16122;50.236;11.734;2023-04-06T03:40:30;1.23;;;1.13;;
29030;SDS011;16122;50.236;11.734;2023-04-06T03:42:56;1.20;;;1.03;;
29030;SDS011;16122;50.236;11.734;2023-04-06T03:45:22;2.97;;;1.27;;
29030;SDS011;16122;50.236;11.734;2023-04-06T03:47:49;1.53;;;1.43;;
29030;SDS011;16122;50.236;11.734;2023-04-06T03:50:16;3.20;;;1.50;;
29030;SDS011;16122;50.236;11.734;2023-04-06T03:52:43;1.43;;;1.23;;
29030;SDS011;16122;50.236;11.734;2023-04-06T03:55:09;3.10;;;1.30;;
29030;SDS011;16122;50.236;11.734;2023-04-06T03:57:35;1.60;;;1.50;;
29030;SDS011;16122;50.236;11.734;2023-04-06T04:00:02;1.47;;;1.37;;
29030;SDS011;16122;50.236;11.734;2023-04-06T04:02:37;3.30;;;1.40;;
29030;SDS011;16122;50.236;11.734;2023-04-06T04:05:04;2.33;;;1.33;;
29030;SDS011;16122;50.236;11.734;2023-04-06T04:07:30;3.10;;;1.37;;
29030;SDS011;16122;50.236;11.734;2023-04-06T04:09:56;3.97;;;1.93;;
29030;SDS011;16122;50.236;11.734;2023-04-06T04:12:22;2.30;;;1.40;;
29030;SDS011;16122;50.236;11.734;2023-04-06T04:14:47;5.67;;;1.53;;
29030;SDS011;16122;50.236;11.734;2023-04-06T04:17:13;3.60;;;1.60;;
29030;SDS011;16122;50.236;11.734;2023-04-06T04:19:39;3.37;;;1.20;;
29030;SDS011;16122;50.236;11.734;2023-04-06T04:22:06;2.53;;;1.30;;
29030;SDS011;16122;50.236;11.734;2023-04-06T04:24:35;4.40;;;1.90;;
29030;SDS011;16122;50.236;11.734;2023-04-06T04:27:02;1.50;;;1.13;;
29030;SDS011;16122;50.236;11.734;2023-04-06T04:29:30;3.33;;;1.33;;
29030;SDS011;16122;50.236;11.734;2023-04-06T04:32:00;1.50;;;1.13;;
29030;SDS011;16122;50.236;11.734;2023-04-06T04:34:26;1.93;;;1.27;;
29030;SDS011;16122;50.236;11.734;2023-04-06T04:36:53;1.40;;;1.30;;
29030;SDS011;16122;50.236;11.734;2023-04-06T04:39:29;1.27;;;1.10;;
29030;SDS011;16122;50.236;11.734;2023-04-06T04:42:01;3.30;;;1.30;;
29030;SDS011;16122;50.236;11.734;2023-04-06T04:44:28;1.20;;;1.10;;
29030;SDS011;16122;50.236;11.734;2023-04-06T04:46:54;8.13;;;2.20;;
29030;SDS011;16122;50.236;11.734;2023-04-06T04:49:27;2.67;;;1.27;;
29030;SDS011;16122;50.236;11.734;2023-04-06T04:51:54;1.53;;;1.43;;
29030;SDS011;16122;50.236;11.734;2023-04-06T04:54:30;1.30;;;1.20;;
29030;SDS011;16122;50.236;11.734;2023-04-06T04:56:57;1.80;;;1.37;;
29030;SDS011;16122;50.236;11.734;2023-04-06T04:59:39;1.20;;;1.10;;
29030;SDS011;16122;50.236;11.734;2023-04-06T05:02:13;1.73;;;1.30;;
29030;SDS011;16122;50.236;11.734;2023-04-06T05:04:50;1.57;;;1.47;;
29030;SDS011;16122;50.236;11.734;2023-04-06T05:07:20;1.30;;;1.20;;
29030;SDS011;16122;50.236;11.734;2023-04-06T05:09:47;1.37;;;1.10;;
29030;SDS011;16122;50.236;11.734;2023-04-06T05:12:13;1.67;;;1.07;;
29030;SDS011;16122;50.236;11.734;2023-04-06T05:14:50;1.87;;;1.43;;
29030;SDS011;16122;50.236;11.734;2023-04-06T05:17:17;1.53;;;1.20;;
29030;SDS011;16122;50.236;11.734;2023-04-06T05:19:43;1.23;;;1.13;;
29030;SDS011;16122;50.236;11.734;2023-04-06T05:22:12;1.70;;;1.57;;
29030;SDS011;16122;50.236;11.734;2023-04-06T05:24:43;1.20;;;1.10;;
29030;SDS011;16122;50.236;11.734;2023-04-06T05:27:09;1.37;;;1.20;;
29030;SDS011;16122;50.236;11.734;2023-04-06T05:29:37;1.60;;;1.27;;
29030;SDS011;16122;50.236;11.734;2023-04-06T05:32:02;2.00;;;1.10;;
29030;SDS011;16122;50.236;11.734;2023-04-06T05:34:29;2.10;;;1.30;;
29030;SDS011;16122;50.236;11.734;2023-04-06T05:36:57;1.73;;;1.37;;
29030;SDS011;16122;50.236;11.734;2023-04-06T05:39:24;1.40;;;1.00;;
29030;SDS011;16122;50.236;11.734;2023-04-06T05:41:52;1.50;;;1.40;;
29030;SDS011;16122;50.236;11.734;2023-04-06T05:44:29;2.73;;;1.37;;
29030;SDS011;16122;50.236;11.734;2023-04-06T05:47:04;2.70;;;1.37;;
29030;SDS011;16122;50.236;11.734;2023-04-06T05:49:32;3.10;;;1.70;;
29030;SDS011;16122;50.236;11.734;2023-04-06T05:51:58;1.30;;;1.20;;
29030;SDS011;16122;50.236;11.734;2023-04-06T05:54:24;1.87;;;1.67;;
29030;SDS011;16122;50.236;11.734;2023-04-06T05:56:55;1.37;;;1.00;;
29030;SDS011;16122;50.236;11.734;2023-04-06T05:59:21;1.40;;;1.30;;
29030;SDS011;16122;50.236;11.734;2023-04-06T06:01:47;1.53;;;1.33;;
29030;SDS011;16122;50.236;11.734;2023-04-06T06:04:13;2.30;;;1.30;;
29030;SDS011;16122;50.236;11.734;2023-04-06T06:06:39;1.33;;;1.20;;
29030;SDS011;16122;50.236;11.734;2023-04-06T06:09:11;1.77;;;1.33;;
29030;SDS011;16122;50.236;11.734;2023-04-06T06:11:44;1.30;;;1.20;;
29030;SDS011;16122;50.236;11.734;2023-04-06T06:14:13;1.30;;;1.20;;
29030;SDS011;16122;50.236;11.734;2023-04-06T06:16:40;1.20;;;1.10;;
29030;SDS011;16122;50.236;11.734;2023-04-06T06:19:08;1.60;;;1.50;;
29030;SDS011;16122;50.236;11.734;2023-04-06T06:21:34;1.73;;;1.43;;
29030;SDS011;16122;50.236;11.734;2023-04-06T06:24:00;1.30;;;1.20;;
29030;SDS011;16122;50.236;11.734;2023-04-06T06:26:28;6.00;;;1.37;;
29030;SDS011;16122;50.236;11.734;2023-04-06T06:28:54;1.80;;;1.70;;
29030;SDS011;16122;50.236;11.734;2023-04-06T06:31:20;1.73;;;1.30;;
29030;SDS011;16122;50.236;11.734;2023-04-06T06:33:48;1.27;;;1.17;;
29030;SDS011;16122;50.236;11.734;2023-04-06T06:36:18;1.40;;;1.30;;
29030;SDS011;16122;50.236;11.734;2023-04-06T06:38:45;1.47;;;1.20;;
29030;SDS011;16122;50.236;11.734;2023-04-06T06:41:13;1.43;;;1.30;;
29030;SDS011;16122;50.236;11.734;2023-04-06T06:43:40;1.00;;;0.90;;
29030;SDS011;16122;50.236;11.734;2023-04-06T06:46:08;1.47;;;1.37;;
29030;SDS011;16122;50.236;11.734;2023-04-06T06:48:34;3.00;;;1.00;;
29030;SDS011;16122;50.236;11.734;2023-04-06T06:51:00;1.67;;;1.57;;
29030;SDS011;16122;50.236;11.734;2023-04-06T06:53:25;2.20;;;1.10;;
29030;SDS011;16122;50.236;11.734;2023-04-06T06:55:51;1.47;;;1.30;;
29030;SDS011;16122;50.236;11.734;2023-04-06T06:58:18;1.50;;;1.40;;
29030;SDS011;16122;50.236;11.734;2023-04-06T07:00:47;1.40;;;1.30;;
29030;SDS011;16122;50.236;11.734;2023-04-06T07:03:13;1.87;;;1.27;;
29030;SDS011;16122;50.236;11.734;2023-04-06T07:05:44;1.47;;;1.37;;
29030;SDS011;16122;50.236;11.734;2023-04-06T07:08:16;2.03;;;1.10;;
29030;SDS011;16122;50.236;11.734;2023-04-06T07:10:41;1.47;;;1.37;;
29030;SDS011;16122;50.236;11.734;2023-04-06T07:13:07;1.30;;;1.20;;
29030;SDS011;16122;50.236;11.734;2023-04-06T07:15:33;1.60;;;1.40;;
29030;SDS011;16122;50.236;11.734;2023-04-06T07:18:00;1.30;;;1.20;;
29030;SDS011;16122;50.236;11.734;2023-04-06T07:20:26;1.40;;;1.00;;
29030;SDS011;16122;50.236;11.734;2023-04-06T07:22:53;1.63;;;1.30;;
29030;SDS011;16122;50.236;11.734;2023-04-06T07:25:19;2.10;;;1.27;;
29030;SDS011;16122;50.236;11.734;2023-04-06T07:27:45;1.60;;;1.20;;
29030;SDS011;16122;50.236;11.734;2023-04-06T07:30:11;1.37;;;1.27;;
29030;SDS011;16122;50.236;11.734;2023-04-06T07:32:37;1.10;;;0.90;;
29030;SDS011;16122;50.236;11.734;2023-04-06T07:35:03;1.73;;;1.30;;
29030;SDS011;16122;50.236;11.734;2023-04-06T07:37:30;1.50;;;1.40;;
29030;SDS011;16122;50.236;11.734;2023-04-06T07:39:55;1.40;;;1.20;;
29030;SDS011;16122;50.236;11.734;2023-04-06T07:42:22;1.00;;;0.90;;
29030;SDS011;16122;50.236;11.734;2023-04-06T07:44:48;1.30;;;1.20;;
29030;SDS011;16122;50.236;11.734;2023-04-06T07:47:14;1.83;;;1.30;;
29030;SDS011;16122;50.236;11.734;2023-04-06T07:49:40;2.07;;;1.17;;
29030;SDS011;16122;50.236;11.734;2023-04-06T07:52:06;2.17;;;1.17;;
29030;SDS011;16122;50.236;11.734;2023-04-06T07:54:32;2.00;;;1.17;;
29030;SDS011;16122;50.236;11.734;2023-04-06T07:56:58;1.40;;;1.30;;
29030;SDS011;16122;50.236;11.734;2023-04-06T07:59:24;1.67;;;1.20;;
29030;SDS011;16122;50.236;11.734;2023-04-06T08:01:50;1.40;;;1.30;;
29030;SDS011;16122;50.236;11.734;2023-04-06T08:04:16;1.43;;;1.20;;
29030;SDS011;16122;50.236;11.734;2023-04-06T08:06:42;1.30;;;1.20;;
29030;SDS011;16122;50.236;11.734;2023-04-06T08:09:07;1.10;;;1.10;;
29030;SDS011;16122;50.236;11.734;2023-04-06T08:11:33;1.30;;;1.20;;
29030;SDS011;16122;50.236;11.734;2023-04-06T08:13:59;1.63;;;1.27;;
29030;SDS011;16122;50.236;11.734;2023-04-06T08:16:25;1.90;;;1.80;;
29030;SDS011;16122;50.236;11.734;2023-04-06T08:18:51;1.63;;;1.53;;
29030;SDS011;16122;50.236;11.734;2023-04-06T08:21:17;1.13;;;0.97;;
29030;SDS011;16122;50.236;11.734;2023-04-06T08:23:43;1.33;;;1.23;;
29030;SDS011;16122;50.236;11.734;2023-04-06T08:26:09;1.30;;;1.00;;
29030;SDS011;16122;50.236;11.734;2023-04-06T08:28:35;1.67;;;1.57;;
29030;SDS011;16122;50.236;11.734;2023-04-06T08:31:07;1.80;;;1.23;;
29030;SDS011;16122;50.236;11.734;2023-04-06T08:33:33;1.43;;;1.33;;
29030;SDS011;16122;50.236;11.734;2023-04-06T08:36:13;1.27;;;1.07;;
29030;SDS011;16122;50.236;11.734;2023-04-06T08:38:40;1.77;;;1.60;;
29030;SDS011;16122;50.236;11.734;2023-04-06T08:41:11;1.17;;;1.07;;
29030;SDS011;16122;50.236;11.734;2023-04-06T08:43:47;1.87;;;1.40;;
29030;SDS011;16122;50.236;11.734;2023-04-06T08:46:17;1.20;;;1.10;;
29030;SDS011;16122;50.236;11.734;2023-04-06T08:48:43;1.30;;;1.20;;
29030;SDS011;16122;50.236;11.734;2023-04-06T08:51:13;1.10;;;1.10;;
29030;SDS011;16122;50.236;11.734;2023-04-06T08:53:40;1.50;;;1.40;;
29030;SDS011;16122;50.236;11.734;2023-04-06T08:56:06;1.40;;;1.30;;
29030;SDS011;16122;50.236;11.734;2023-04-06T08:58:35;1.00;;;1.00;;
29030;SDS011;16122;50.236;11.734;2023-04-06T09:01:07;1.53;;;1.37;;
29030;SDS011;16122;50.236;11.734;2023-04-06T09:03:37;1.57;;;1.47;;
29030;SDS011;16122;50.236;11.734;2023-04-06T09:06:05;1.40;;;1.30;;
29030;SDS011;16122;50.236;11.734;2023-04-06T09:08:33;1.53;;;1.10;;
29030;SDS011;16122;50.236;11.734;2023-04-06T09:11:02;1.20;;;1.10;;
29030;SDS011;16122;50.236;11.734;2023-04-06T09:13:29;1.43;;;1.20;;
29030;SDS011;16122;50.236;11.734;2023-04-06T09:16:00;2.50;;;1.50;;
29030;SDS011;16122;50.236;11.734;2023-04-06T09:18:30;1.03;;;0.93;;
29030;SDS011;16122;50.236;11.734;2023-04-06T09:21:06;1.20;;;1.10;;
29030;SDS011;16122;50.236;11.734;2023-04-06T09:23:33;1.33;;;1.23;;
29030;SDS011;16122;50.236;11.734;2023-04-06T09:26:15;1.33;;;1.23;;
29030;SDS011;16122;50.236;11.734;2023-04-06T09:31:07;1.37;;;1.27;;
29030;SDS011;16122;50.236;11.734;2023-04-06T09:33:37;1.20;;;1.10;;
29030;SDS011;16122;50.236;11.734;2023-04-06T09:36:04;2.07;;;1.97;;
29030;SDS011;16122;50.236;11.734;2023-04-06T09:38:30;7.77;;;6.17;;
29030;SDS011;16122;50.236;11.734;2023-04-06T09:40:56;28.03;;;20.90;;
29030;SDS011;16122;50.236;11.734;2023-04-06T09:43:28;64.60;;;48.07;;
29030;SDS011;16122;50.236;11.734;2023-04-06T09:45:55;120.03;;;84.70;;
29030;SDS011;16122;50.236;11.734;2023-04-06T09:48:22;127.70;;;92.03;;
29030;SDS011;16122;50.236;11.734;2023-04-06T09:50:50;147.33;;;104.57;;
29030;SDS011;16122;50.236;11.734;2023-04-06T09:53:23;157.33;;;111.70;;
29030;SDS011;16122;50.236;11.734;2023-04-06T09:55:51;164.57;;;114.30;;
29030;SDS011;16122;50.236;11.734;2023-04-06T09:58:22;168.73;;;116.77;;
29030;SDS011;16122;50.236;11.734;2023-04-06T10:00:57;150.50;;;108.70;;
29030;SDS011;16122;50.236;11.734;2023-04-06T10:06:13;138.70;;;97.00;;
29030;SDS011;16122;50.236;11.734;2023-04-06T10:08:40;140.53;;;96.23;;
29030;SDS011;16122;50.236;11.734;2023-04-06T10:11:10;127.37;;;91.37;;
29030;SDS011;16122;50.236;11.734;2023-04-06T10:13:36;116.67;;;83.07;;
29030;SDS011;16122;50.236;11.734;2023-04-06T10:16:02;110.00;;;75.23;;
29030;SDS011;16122;50.236;11.734;2023-04-06T10:18:31;105.20;;;75.07;;
29030;SDS011;16122;50.236;11.734;2023-04-06T10:21:01;98.60;;;69.20;;
29030;SDS011;16122;50.236;11.734;2023-04-06T10:26:20;96.60;;;67.90;;
29030;SDS011;16122;50.236;11.734;2023-04-06T10:28:47;96.37;;;63.70;;
29030;SDS011;16122;50.236;11.734;2023-04-06T10:31:14;92.30;;;61.33;;
29030;SDS011;16122;50.236;11.734;2023-04-06T10:33:40;91.60;;;59.70;;
29030;SDS011;16122;50.236;11.734;2023-04-06T10:36:13;76.30;;;53.97;;
29030;SDS011;16122;50.236;11.734;2023-04-06T10:38:41;75.80;;;53.33;;
29030;SDS011;16122;50.236;11.734;2023-04-06T10:41:09;72.60;;;51.37;;
29030;SDS011;16122;50.236;11.734;2023-04-06T10:43:37;73.00;;;51.37;;
29030;SDS011;16122;50.236;11.734;2023-04-06T10:46:04;71.73;;;51.10;;
29030;SDS011;16122;50.236;11.734;2023-04-06T10:48:39;67.73;;;49.80;;
29030;SDS011;16122;50.236;11.734;2023-04-06T10:51:15;76.50;;;51.00;;
29030;SDS011;16122;50.236;11.734;2023-04-06T10:53:47;67.00;;;49.20;;
29030;SDS011;16122;50.236;11.734;2023-04-06T10:56:14;60.17;;;44.00;;
29030;SDS011;16122;50.236;11.734;2023-04-06T10:58:45;56.37;;;39.80;;
29030;SDS011;16122;50.236;11.734;2023-04-06T11:01:15;59.87;;;40.40;;
29030;SDS011;16122;50.236;11.734;2023-04-06T11:03:45;49.77;;;34.37;;
29030;SDS011;16122;50.236;11.734;2023-04-06T11:06:25;50.30;;;34.47;;
29030;SDS011;16122;50.236;11.734;2023-04-06T11:08:54;42.87;;;33.23;;
29030;SDS011;16122;50.236;11.734;2023-04-06T11:11:21;48.83;;;34.90;;
29030;SDS011;16122;50.236;11.734;2023-04-06T11:13:49;46.00;;;33.03;;
29030;SDS011;16122;50.236;11.734;2023-04-06T11:16:20;39.40;;;29.97;;
29030;SDS011;16122;50.236;11.734;2023-04-06T11:21:18;38.00;;;27.90;;
29030;SDS011;16122;50.236;11.734;2023-04-06T11:23:45;37.53;;;26.63;;
29030;SDS011;16122;50.236;11.734;2023-04-06T11:26:11;35.20;;;24.70;;
29030;SDS011;16122;50.236;11.734;2023-04-06T11:28:38;33.00;;;25.00;;
29030;SDS011;16122;50.236;11.734;2023-04-06T11:31:10;37.57;;;27.30;;
29030;SDS011;16122;50.236;11.734;2023-04-06T11:33:37;36.03;;;25.97;;
29030;SDS011;16122;50.236;11.734;2023-04-06T11:36:04;32.37;;;24.30;;
29030;SDS011;16122;50.236;11.734;2023-04-06T11:38:31;36.73;;;27.37;;
29030;SDS011;16122;50.236;11.734;2023-04-06T11:40:57;35.30;;;24.40;;
29030;SDS011;16122;50.236;11.734;2023-04-06T11:43:27;17.17;;;11.73;;
29030;SDS011;16122;50.236;11.734;2023-04-06T11:46:00;17.77;;;13.70;;
29030;SDS011;16122;50.236;11.734;2023-04-06T11:48:27;17.47;;;13.13;;
29030;SDS011;16122;50.236;11.734;2023-04-06T11:50:59;17.33;;;13.43;;
29030;SDS011;16122;50.236;11.734;2023-04-06T11:53:27;20.33;;;15.57;;
29030;SDS011;16122;50.236;11.734;2023-04-06T11:55:54;20.60;;;14.67;;
29030;SDS011;16122;50.236;11.734;2023-04-06T11:58:20;21.47;;;15.77;;
29030;SDS011;16122;50.236;11.734;2023-04-06T12:00:46;22.97;;;15.33;;
29030;SDS011;16122;50.236;11.734;2023-04-06T12:03:12;18.10;;;14.70;;
29030;SDS011;16122;50.236;11.734;2023-04-06T12:05:38;21.30;;;14.40;;
29030;SDS011;16122;50.236;11.734;2023-04-06T12:08:04;19.23;;;13.53;;
29030;SDS011;16122;50.236;11.734;2023-04-06T12:10:30;18.60;;;13.87;;
29030;SDS011;16122;50.236;11.734;2023-04-06T12:12:56;17.40;;;13.60;;
29030;SDS011;16122;50.236;11.734;2023-04-06T12:15:22;19.07;;;14.10;;
29030;SDS011;16122;50.236;11.734;2023-04-06T12:17:49;17.80;;;13.10;;
29030;SDS011;16122;50.236;11.734;2023-04-06T12:20:15;17.13;;;12.40;;
29030;SDS011;16122;50.236;11.734;2023-04-06T12:22:41;15.83;;;11.30;;
29030;SDS011;16122;50.236;11.734;2023-04-06T12:25:07;15.20;;;12.17;;
29030;SDS011;16122;50.236;11.734;2023-04-06T12:27:33;15.13;;;11.30;;
29030;SDS011;16122;50.236;11.734;2023-04-06T12:29:59;15.33;;;10.90;;
29030;SDS011;16122;50.236;11.734;2023-04-06T12:32:25;17.27;;;9.90;;
29030;SDS011;16122;50.236;11.734;2023-04-06T12:34:52;14.43;;;9.93;;
29030;SDS011;16122;50.236;11.734;2023-04-06T12:37:18;12.93;;;8.60;;
29030;SDS011;16122;50.236;11.734;2023-04-06T12:39:45;10.73;;;8.33;;
29030;SDS011;16122;50.236;11.734;2023-04-06T12:42:11;9.93;;;7.27;;
29030;SDS011;16122;50.236;11.734;2023-04-06T12:44:38;10.60;;;8.40;;
29030;SDS011;16122;50.236;11.734;2023-04-06T12:47:04;11.80;;;8.23;;
29030;SDS011;16122;50.236;11.734;2023-04-06T12:49:32;9.53;;;7.43;;
29030;SDS011;16122;50.236;11.734;2023-04-06T12:51:58;12.07;;;7.10;;
29030;SDS011;16122;50.236;11.734;2023-04-06T12:54:24;9.53;;;6.53;;
29030;SDS011;16122;50.236;11.734;2023-04-06T12:56:51;10.10;;;6.70;;
29030;SDS011;16122;50.236;11.734;2023-04-06T12:59:17;9.43;;;6.53;;
29030;SDS011;16122;50.236;11.734;2023-04-06T13:01:43;9.97;;;7.20;;
29030;SDS011;16122;50.236;11.734;2023-04-06T13:04:09;7.90;;;6.50;;
29030;SDS011;16122;50.236;11.734;2023-04-06T13:06:35;7.10;;;6.23;;
29030;SDS011;16122;50.236;11.734;2023-04-06T13:09:01;8.87;;;6.07;;
29030;SDS011;16122;50.236;11.734;2023-04-06T13:11:29;6.80;;;5.60;;
29030;SDS011;16122;50.236;11.734;2023-04-06T13:13:55;7.80;;;5.67;;
29030;SDS011;16122;50.236;11.734;2023-04-06T13:16:21;7.47;;;5.90;;
29030;SDS011;16122;50.236;11.734;2023-04-06T13:18:46;9.20;;;6.77;;
29030;SDS011;16122;50.236;11.734;2023-04-06T13:21:16;8.13;;;6.10;;
29030;SDS011;16122;50.236;11.734;2023-04-06T13:23:42;5.10;;;4.60;;
29030;SDS011;16122;50.236;11.734;2023-04-06T13:26:08;5.67;;;4.37;;
29030;SDS011;16122;50.236;11.734;2023-04-06T13:28:35;7.30;;;5.27;;
29030;SDS011;16122;50.236;11.734;2023-04-06T13:31:05;5.20;;;4.67;;
29030;SDS011;16122;50.236;11.734;2023-04-06T13:33:31;7.40;;;5.27;;
29030;SDS011;16122;50.236;11.734;2023-04-06T13:35:58;5.40;;;4.87;;
29030;SDS011;16122;50.236;11.734;2023-04-06T13:38:24;6.27;;;5.20;;
29030;SDS011;16122;50.236;11.734;2023-04-06T13:40:50;6.67;;;5.00;;
29030;SDS011;16122;50.236;11.734;2023-04-06T13:43:16;5.87;;;4.77;;
29030;SDS011;16122;50.236;11.734;2023-04-06T13:45:51;5.10;;;4.60;;
29030;SDS011;16122;50.236;11.734;2023-04-06T13:48:19;4.43;;;4.00;;
29030;SDS011;16122;50.236;11.734;2023-04-06T13:50:45;5.40;;;4.13;;
29030;SDS011;16122;50.236;11.734;2023-04-06T13:53:11;3.73;;;3.43;;
29030;SDS011;16122;50.236;11.734;2023-04-06T13:55:37;3.83;;;3.43;;
29030;SDS011;16122;50.236;11.734;2023-04-06T13:58:03;4.80;;;4.40;;
29030;SDS011;16122;50.236;11.734;2023-04-06T14:00:29;5.40;;;3.73;;
29030;SDS011;16122;50.236;11.734;2023-04-06T14:02:55;4.43;;;3.43;;
29030;SDS011;16122;50.236;11.734;2023-04-06T14:05:21;4.40;;;3.73;;
29030;SDS011;16122;50.236;11.734;2023-04-06T14:07:48;3.83;;;3.20;;
29030;SDS011;16122;50.236;11.734;2023-04-06T14:10:15;3.37;;;3.07;;
29030;SDS011;16122;50.236;11.734;2023-04-06T14:12:41;5.90;;;4.27;;
29030;SDS011;16122;50.236;11.734;2023-04-06T14:15:09;4.50;;;3.80;;
29030;SDS011;16122;50.236;11.734;2023-04-06T14:17:36;4.70;;;3.47;;
29030;SDS011;16122;50.236;11.734;2023-04-06T14:20:02;4.10;;;3.70;;
29030;SDS011;16122;50.236;11.734;2023-04-06T14:22:29;4.00;;;3.60;;
29030;SDS011;16122;50.236;11.734;2023-04-06T14:24:55;5.57;;;3.83;;
29030;SDS011;16122;50.236;11.734;2023-04-06T14:27:21;3.63;;;3.33;;
29030;SDS011;16122;50.236;11.734;2023-04-06T14:29:47;5.57;;;3.77;;
29030;SDS011;16122;50.236;11.734;2023-04-06T14:32:12;4.10;;;3.10;;
29030;SDS011;16122;50.236;11.734;2023-04-06T14:34:38;3.50;;;3.20;;
29030;SDS011;16122;50.236;11.734;2023-04-06T14:37:04;3.10;;;2.60;;
29030;SDS011;16122;50.236;11.734;2023-04-06T14:39:30;3.57;;;3.27;;
29030;SDS011;16122;50.236;11.734;2023-04-06T14:41:56;4.10;;;3.70;;
29030;SDS011;16122;50.236;11.734;2023-04-06T14:44:22;3.40;;;3.10;;